sensor_id;sensor_type;location;lat;lon;timestamp;P1;durP1;ratioP1;P2;durP2;ratioP2
21258;SDS011;10787;53.364;-1.480;2022-11-12T00:00:51;17.83;;;8.30;;
21258;SDS011;10787;53.364;-1.480;2022-11-12T00:03:18;14.73;;;8.47;;
21258;SDS011;10787;53.364;-1.480;2022-11-12T00:05:44;15.53;;;8.87;;
21258;SDS011;10787;53.364;-1.480;2022-11-12T00:08:12;16.20;;;8.97;;
21258;SDS011;10787;53.364;-1.480;2022-11-12T00:10:38;14.43;;;8.60;;
21258;SDS011;10787;53.364;-1.480;2022-11-12T00:13:04;15.60;;;8.70;;
21258;SDS011;10787;53.364;-1.480;2022-11-12T00:15:30;15.43;;;8.50;;
21258;SDS011;10787;53.364;-1.480;2022-11-12T00:17:56;13.83;;;8.83;;
21258;SDS011;10787;53.364;-1.480;2022-11-12T00:20:22;20.50;;;9.50;;
21258;SDS011;10787;53.364;-1.480;2022-11-12T00:22:47;14.83;;;8.60;;
21258;SDS011;10787;53.364;-1.480;2022-11-12T00:25:14;18.87;;;9.13;;
21258;SDS011;10787;53.364;-1.480;2022-11-12T00:27:39;17.33;;;9.00;;
21258;SDS011;10787;53.364;-1.480;2022-11-12T00:30:06;15.27;;;8.63;;
21258;SDS011;10787;53.364;-1.480;2022-11-12T00:32:34;12.77;;;8.67;;
21258;SDS011;10787;53.364;-1.480;2022-11-12T00:35:02;12.97;;;8.00;;
21258;SDS011;10787;53.364;-1.480;2022-11-12T00:37:28;19.47;;;9.00;;
21258;SDS011;10787;53.364;-1.480;2022-11-12T00:39:54;15.10;;;8.80;;
21258;SDS011;10787;53.364;-1.480;2022-11-12T00:42:20;15.73;;;8.30;;
21258;SDS011;10787;53.364;-1.480;2022-11-12T00:44:48;16.80;;;8.40;;
21258;SDS011;10787;53.364;-1.480;2022-11-12T00:47:15;13.00;;;8.30;;
21258;SDS011;10787;53.364;-1.480;2022-11-12T00:49:41;12.33;;;7.77;;
21258;SDS011;10787;53.364;-1.480;2022-11-12T00:52:07;12.87;;;7.70;;
21258;SDS011;10787;53.364;-1.480;2022-11-12T00:54:33;15.53;;;8.07;;
21258;SDS011;10787;53.364;-1.480;2022-11-12T00:56:59;14.47;;;8.10;;
21258;SDS011;10787;53.364;-1.480;2022-11-12T00:59:24;14.23;;;8.00;;
21258;SDS011;10787;53.364;-1.480;2022-11-12T01:01:50;12.80;;;7.67;;
21258;SDS011;10787;53.364;-1.480;2022-11-12T01:04:16;14.07;;;7.53;;
21258;SDS011;10787;53.364;-1.480;2022-11-12T01:06:42;12.17;;;7.57;;
21258;SDS011;10787;53.364;-1.480;2022-11-12T01:09:08;15.40;;;8.17;;
21258;SDS011;10787;53.364;-1.480;2022-11-12T01:11:34;13.50;;;8.10;;
21258;SDS011;10787;53.364;-1.480;2022-11-12T01:14:01;14.33;;;8.07;;
21258;SDS011;10787;53.364;-1.480;2022-11-12T01:16:30;11.60;;;7.50;;
21258;SDS011;10787;53.364;-1.480;2022-11-12T01:19:00;12.77;;;7.53;;
21258;SDS011;10787;53.364;-1.480;2022-11-12T01:21:27;13.90;;;8.10;;
21258;SDS011;10787;53.364;-1.480;2022-11-12T01:23:58;14.93;;;7.27;;
21258;SDS011;10787;53.364;-1.480;2022-11-12T01:26:25;13.57;;;7.80;;
21258;SDS011;10787;53.364;-1.480;2022-11-12T01:28:55;17.57;;;8.60;;
21258;SDS011;10787;53.364;-1.480;2022-11-12T01:31:23;14.27;;;8.70;;
21258;SDS011;10787;53.364;-1.480;2022-11-12T01:33:53;14.10;;;8.10;;
21258;SDS011;10787;53.364;-1.480;2022-11-12T01:36:23;13.60;;;8.10;;
21258;SDS011;10787;53.364;-1.480;2022-11-12T01:38:50;14.57;;;8.07;;
21258;SDS011;10787;53.364;-1.480;2022-11-12T01:41:19;14.47;;;8.13;;
21258;SDS011;10787;53.364;-1.480;2022-11-12T01:46:31;13.30;;;7.53;;
21258;SDS011;10787;53.364;-1.480;2022-11-12T01:48:59;13.63;;;7.70;;
21258;SDS011;10787;53.364;-1.480;2022-11-12T01:51:31;12.70;;;7.73;;
21258;SDS011;10787;53.364;-1.480;2022-11-12T01:54:01;12.87;;;7.57;;
21258;SDS011;10787;53.364;-1.480;2022-11-12T01:56:33;11.80;;;7.97;;
21258;SDS011;10787;53.364;-1.480;2022-11-12T01:59:03;11.17;;;8.23;;
21258;SDS011;10787;53.364;-1.480;2022-11-12T02:01:36;11.77;;;7.67;;
21258;SDS011;10787;53.364;-1.480;2022-11-12T02:04:03;18.00;;;8.40;;
21258;SDS011;10787;53.364;-1.480;2022-11-12T02:06:30;14.37;;;8.73;;
21258;SDS011;10787;53.364;-1.480;2022-11-12T02:08:57;13.03;;;8.17;;
21258;SDS011;10787;53.364;-1.480;2022-11-12T02:11:23;16.33;;;8.70;;
21258;SDS011;10787;53.364;-1.480;2022-11-12T02:13:50;14.00;;;8.33;;
21258;SDS011;10787;53.364;-1.480;2022-11-12T02:16:29;13.07;;;8.17;;
21258;SDS011;10787;53.364;-1.480;2022-11-12T02:18:56;15.53;;;8.53;;
21258;SDS011;10787;53.364;-1.480;2022-11-12T02:21:23;16.37;;;9.60;;
21258;SDS011;10787;53.364;-1.480;2022-11-12T02:23:57;12.23;;;8.60;;
21258;SDS011;10787;53.364;-1.480;2022-11-12T02:26:23;14.37;;;9.13;;
21258;SDS011;10787;53.364;-1.480;2022-11-12T02:28:49;15.30;;;8.40;;
21258;SDS011;10787;53.364;-1.480;2022-11-12T02:31:15;14.40;;;8.30;;
21258;SDS011;10787;53.364;-1.480;2022-11-12T02:33:41;13.80;;;8.50;;
21258;SDS011;10787;53.364;-1.480;2022-11-12T02:36:07;16.17;;;8.70;;
21258;SDS011;10787;53.364;-1.480;2022-11-12T02:38:33;17.03;;;9.30;;
21258;SDS011;10787;53.364;-1.480;2022-11-12T02:40:59;16.00;;;9.33;;
21258;SDS011;10787;53.364;-1.480;2022-11-12T02:43:25;14.67;;;9.40;;
21258;SDS011;10787;53.364;-1.480;2022-11-12T02:45:51;13.77;;;8.67;;
21258;SDS011;10787;53.364;-1.480;2022-11-12T02:48:16;18.60;;;9.70;;
21258;SDS011;10787;53.364;-1.480;2022-11-12T02:50:43;15.33;;;9.30;;
21258;SDS011;10787;53.364;-1.480;2022-11-12T02:53:08;15.03;;;8.97;;
21258;SDS011;10787;53.364;-1.480;2022-11-12T02:55:34;15.37;;;8.87;;
21258;SDS011;10787;53.364;-1.480;2022-11-12T02:58:00;15.03;;;9.00;;
21258;SDS011;10787;53.364;-1.480;2022-11-12T03:00:26;14.70;;;8.90;;
21258;SDS011;10787;53.364;-1.480;2022-11-12T03:02:52;13.93;;;8.83;;
21258;SDS011;10787;53.364;-1.480;2022-11-12T03:05:27;17.10;;;9.07;;
21258;SDS011;10787;53.364;-1.480;2022-11-12T03:07:58;14.63;;;9.30;;
21258;SDS011;10787;53.364;-1.480;2022-11-12T03:10:26;15.77;;;9.33;;
21258;SDS011;10787;53.364;-1.480;2022-11-12T03:12:53;12.27;;;8.90;;
21258;SDS011;10787;53.364;-1.480;2022-11-12T03:15:21;14.47;;;9.03;;
21258;SDS011;10787;53.364;-1.480;2022-11-12T03:17:47;15.27;;;9.10;;
21258;SDS011;10787;53.364;-1.480;2022-11-12T03:20:13;12.73;;;8.70;;
21258;SDS011;10787;53.364;-1.480;2022-11-12T03:22:39;16.47;;;8.37;;
21258;SDS011;10787;53.364;-1.480;2022-11-12T03:25:06;13.20;;;8.77;;
21258;SDS011;10787;53.364;-1.480;2022-11-12T03:27:34;11.63;;;8.00;;
21258;SDS011;10787;53.364;-1.480;2022-11-12T03:29:59;13.53;;;7.90;;
21258;SDS011;10787;53.364;-1.480;2022-11-12T03:32:26;13.70;;;8.67;;
21258;SDS011;10787;53.364;-1.480;2022-11-12T03:34:51;11.83;;;7.40;;
21258;SDS011;10787;53.364;-1.480;2022-11-12T03:37:17;13.57;;;7.70;;
21258;SDS011;10787;53.364;-1.480;2022-11-12T03:39:43;10.33;;;7.47;;
21258;SDS011;10787;53.364;-1.480;2022-11-12T03:42:09;12.77;;;7.30;;
21258;SDS011;10787;53.364;-1.480;2022-11-12T03:44:35;12.33;;;7.37;;
21258;SDS011;10787;53.364;-1.480;2022-11-12T03:47:00;14.20;;;7.47;;
21258;SDS011;10787;53.364;-1.480;2022-11-12T03:49:26;12.33;;;7.33;;
21258;SDS011;10787;53.364;-1.480;2022-11-12T03:51:52;12.40;;;6.87;;
21258;SDS011;10787;53.364;-1.480;2022-11-12T03:54:17;12.70;;;7.27;;
21258;SDS011;10787;53.364;-1.480;2022-11-12T03:56:44;13.67;;;7.30;;
21258;SDS011;10787;53.364;-1.480;2022-11-12T03:59:10;12.07;;;7.83;;
21258;SDS011;10787;53.364;-1.480;2022-11-12T04:01:35;11.50;;;8.10;;
21258;SDS011;10787;53.364;-1.480;2022-11-12T04:04:01;12.57;;;8.50;;
21258;SDS011;10787;53.364;-1.480;2022-11-12T04:06:27;12.87;;;8.10;;
21258;SDS011;10787;53.364;-1.480;2022-11-12T04:09:11;15.17;;;9.77;;
21258;SDS011;10787;53.364;-1.480;2022-11-12T04:11:37;13.63;;;9.40;;
21258;SDS011;10787;53.364;-1.480;2022-11-12T04:14:04;16.50;;;9.47;;
21258;SDS011;10787;53.364;-1.480;2022-11-12T04:16:30;13.80;;;9.77;;
21258;SDS011;10787;53.364;-1.480;2022-11-12T04:19:14;15.17;;;10.90;;
21258;SDS011;10787;53.364;-1.480;2022-11-12T04:22:03;13.40;;;8.90;;
21258;SDS011;10787;53.364;-1.480;2022-11-12T04:24:32;14.07;;;8.83;;
21258;SDS011;10787;53.364;-1.480;2022-11-12T04:27:24;11.83;;;8.60;;
21258;SDS011;10787;53.364;-1.480;2022-11-12T04:29:52;11.63;;;7.80;;
21258;SDS011;10787;53.364;-1.480;2022-11-12T04:32:38;12.60;;;6.93;;
21258;SDS011;10787;53.364;-1.480;2022-11-12T04:35:06;11.43;;;7.20;;
21258;SDS011;10787;53.364;-1.480;2022-11-12T04:37:33;13.90;;;7.80;;
21258;SDS011;10787;53.364;-1.480;2022-11-12T04:40:13;12.03;;;8.17;;
21258;SDS011;10787;53.364;-1.480;2022-11-12T04:42:59;14.70;;;8.13;;
21258;SDS011;10787;53.364;-1.480;2022-11-12T04:45:45;12.50;;;7.97;;
21258;SDS011;10787;53.364;-1.480;2022-11-12T04:48:13;11.97;;;8.10;;
21258;SDS011;10787;53.364;-1.480;2022-11-12T04:50:39;12.53;;;8.43;;
21258;SDS011;10787;53.364;-1.480;2022-11-12T04:53:06;11.83;;;8.67;;
21258;SDS011;10787;53.364;-1.480;2022-11-12T04:55:32;15.73;;;8.70;;
21258;SDS011;10787;53.364;-1.480;2022-11-12T04:57:58;13.80;;;8.50;;
21258;SDS011;10787;53.364;-1.480;2022-11-12T05:00:24;13.97;;;8.10;;
21258;SDS011;10787;53.364;-1.480;2022-11-12T05:02:50;14.60;;;7.87;;
21258;SDS011;10787;53.364;-1.480;2022-11-12T05:05:16;12.97;;;8.17;;
21258;SDS011;10787;53.364;-1.480;2022-11-12T05:07:43;12.97;;;7.50;;
21258;SDS011;10787;53.364;-1.480;2022-11-12T05:10:09;14.07;;;7.30;;
21258;SDS011;10787;53.364;-1.480;2022-11-12T05:12:35;14.40;;;7.70;;
21258;SDS011;10787;53.364;-1.480;2022-11-12T05:15:01;10.50;;;6.90;;
21258;SDS011;10787;53.364;-1.480;2022-11-12T05:17:27;12.20;;;7.07;;
21258;SDS011;10787;53.364;-1.480;2022-11-12T05:19:53;10.13;;;6.47;;
21258;SDS011;10787;53.364;-1.480;2022-11-12T05:22:19;14.50;;;6.87;;
21258;SDS011;10787;53.364;-1.480;2022-11-12T05:24:45;12.57;;;6.20;;
21258;SDS011;10787;53.364;-1.480;2022-11-12T05:27:13;11.13;;;6.53;;
21258;SDS011;10787;53.364;-1.480;2022-11-12T05:29:41;14.57;;;6.20;;
21258;SDS011;10787;53.364;-1.480;2022-11-12T05:32:07;8.23;;;5.80;;
21258;SDS011;10787;53.364;-1.480;2022-11-12T05:34:35;11.80;;;6.33;;
21258;SDS011;10787;53.364;-1.480;2022-11-12T05:37:02;10.23;;;5.97;;
21258;SDS011;10787;53.364;-1.480;2022-11-12T05:39:29;10.40;;;5.47;;
21258;SDS011;10787;53.364;-1.480;2022-11-12T05:41:55;10.07;;;5.63;;
21258;SDS011;10787;53.364;-1.480;2022-11-12T05:44:21;9.97;;;5.30;;
21258;SDS011;10787;53.364;-1.480;2022-11-12T05:46:48;12.03;;;5.60;;
21258;SDS011;10787;53.364;-1.480;2022-11-12T05:49:15;11.03;;;5.90;;
21258;SDS011;10787;53.364;-1.480;2022-11-12T05:51:42;10.37;;;5.43;;
21258;SDS011;10787;53.364;-1.480;2022-11-12T05:54:08;9.50;;;5.40;;
21258;SDS011;10787;53.364;-1.480;2022-11-12T05:56:34;11.27;;;5.73;;
21258;SDS011;10787;53.364;-1.480;2022-11-12T05:59:02;8.10;;;5.60;;
21258;SDS011;10787;53.364;-1.480;2022-11-12T06:01:29;10.03;;;5.10;;
21258;SDS011;10787;53.364;-1.480;2022-11-12T06:03:55;10.83;;;5.60;;
21258;SDS011;10787;53.364;-1.480;2022-11-12T06:06:21;8.33;;;5.13;;
21258;SDS011;10787;53.364;-1.480;2022-11-12T06:08:47;12.10;;;5.63;;
21258;SDS011;10787;53.364;-1.480;2022-11-12T06:11:14;9.30;;;5.53;;
21258;SDS011;10787;53.364;-1.480;2022-11-12T06:13:40;9.97;;;5.23;;
21258;SDS011;10787;53.364;-1.480;2022-11-12T06:16:06;9.27;;;5.20;;
21258;SDS011;10787;53.364;-1.480;2022-11-12T06:18:33;9.90;;;5.70;;
21258;SDS011;10787;53.364;-1.480;2022-11-12T06:21:00;8.97;;;5.77;;
21258;SDS011;10787;53.364;-1.480;2022-11-12T06:23:46;11.87;;;5.70;;
21258;SDS011;10787;53.364;-1.480;2022-11-12T06:26:13;10.77;;;5.83;;
21258;SDS011;10787;53.364;-1.480;2022-11-12T06:28:39;9.40;;;5.83;;
21258;SDS011;10787;53.364;-1.480;2022-11-12T06:31:05;9.07;;;5.13;;
21258;SDS011;10787;53.364;-1.480;2022-11-12T06:33:30;8.60;;;5.20;;
21258;SDS011;10787;53.364;-1.480;2022-11-12T06:35:57;9.17;;;4.87;;
21258;SDS011;10787;53.364;-1.480;2022-11-12T06:38:34;9.13;;;4.73;;
21258;SDS011;10787;53.364;-1.480;2022-11-12T06:41:01;6.57;;;4.20;;
21258;SDS011;10787;53.364;-1.480;2022-11-12T06:43:29;6.83;;;4.13;;
21258;SDS011;10787;53.364;-1.480;2022-11-12T06:45:59;6.27;;;3.87;;
21258;SDS011;10787;53.364;-1.480;2022-11-12T06:48:26;7.67;;;3.50;;
21258;SDS011;10787;53.364;-1.480;2022-11-12T06:50:53;7.67;;;3.50;;
21258;SDS011;10787;53.364;-1.480;2022-11-12T06:53:18;7.30;;;3.40;;
21258;SDS011;10787;53.364;-1.480;2022-11-12T06:55:45;6.90;;;3.27;;
21258;SDS011;10787;53.364;-1.480;2022-11-12T06:58:10;6.40;;;3.40;;
21258;SDS011;10787;53.364;-1.480;2022-11-12T07:00:36;6.03;;;3.53;;
21258;SDS011;10787;53.364;-1.480;2022-11-12T07:03:05;6.07;;;3.30;;
21258;SDS011;10787;53.364;-1.480;2022-11-12T07:05:35;7.30;;;3.50;;
21258;SDS011;10787;53.364;-1.480;2022-11-12T07:08:03;6.57;;;3.50;;
21258;SDS011;10787;53.364;-1.480;2022-11-12T07:10:30;6.00;;;3.20;;
21258;SDS011;10787;53.364;-1.480;2022-11-12T07:12:56;6.23;;;3.60;;
21258;SDS011;10787;53.364;-1.480;2022-11-12T07:15:22;7.13;;;3.87;;
21258;SDS011;10787;53.364;-1.480;2022-11-12T07:17:48;7.77;;;3.60;;
21258;SDS011;10787;53.364;-1.480;2022-11-12T07:20:13;7.50;;;3.87;;
21258;SDS011;10787;53.364;-1.480;2022-11-12T07:22:39;7.10;;;3.43;;
21258;SDS011;10787;53.364;-1.480;2022-11-12T07:25:05;6.77;;;3.33;;
21258;SDS011;10787;53.364;-1.480;2022-11-12T07:27:31;6.37;;;3.47;;
21258;SDS011;10787;53.364;-1.480;2022-11-12T07:29:57;6.70;;;3.60;;
21258;SDS011;10787;53.364;-1.480;2022-11-12T07:32:23;5.73;;;3.37;;
21258;SDS011;10787;53.364;-1.480;2022-11-12T07:34:49;6.83;;;4.23;;
21258;SDS011;10787;53.364;-1.480;2022-11-12T07:37:15;6.23;;;4.13;;
21258;SDS011;10787;53.364;-1.480;2022-11-12T07:39:41;6.03;;;3.97;;
21258;SDS011;10787;53.364;-1.480;2022-11-12T07:42:07;6.10;;;3.77;;
21258;SDS011;10787;53.364;-1.480;2022-11-12T07:44:32;7.67;;;4.20;;
21258;SDS011;10787;53.364;-1.480;2022-11-12T07:46:58;6.50;;;3.43;;
21258;SDS011;10787;53.364;-1.480;2022-11-12T07:49:24;5.10;;;3.80;;
21258;SDS011;10787;53.364;-1.480;2022-11-12T07:51:50;6.50;;;3.80;;
21258;SDS011;10787;53.364;-1.480;2022-11-12T07:54:15;7.23;;;3.80;;
21258;SDS011;10787;53.364;-1.480;2022-11-12T07:56:41;9.90;;;4.10;;
21258;SDS011;10787;53.364;-1.480;2022-11-12T07:59:07;6.60;;;3.90;;
21258;SDS011;10787;53.364;-1.480;2022-11-12T08:01:34;7.27;;;4.00;;
21258;SDS011;10787;53.364;-1.480;2022-11-12T08:04:02;5.77;;;3.80;;
21258;SDS011;10787;53.364;-1.480;2022-11-12T08:06:30;5.90;;;3.77;;
21258;SDS011;10787;53.364;-1.480;2022-11-12T08:08:57;9.10;;;3.90;;
21258;SDS011;10787;53.364;-1.480;2022-11-12T08:11:24;7.03;;;4.17;;
21258;SDS011;10787;53.364;-1.480;2022-11-12T08:13:50;7.97;;;4.00;;
21258;SDS011;10787;53.364;-1.480;2022-11-12T08:16:16;8.03;;;4.23;;
21258;SDS011;10787;53.364;-1.480;2022-11-12T08:18:42;7.97;;;4.20;;
21258;SDS011;10787;53.364;-1.480;2022-11-12T08:21:11;6.43;;;3.80;;
21258;SDS011;10787;53.364;-1.480;2022-11-12T08:23:44;7.20;;;3.90;;
21258;SDS011;10787;53.364;-1.480;2022-11-12T08:26:12;9.40;;;4.50;;
21258;SDS011;10787;53.364;-1.480;2022-11-12T08:28:39;9.00;;;4.50;;
21258;SDS011;10787;53.364;-1.480;2022-11-12T08:31:10;7.43;;;4.80;;
21258;SDS011;10787;53.364;-1.480;2022-11-12T08:33:41;8.33;;;4.80;;
21258;SDS011;10787;53.364;-1.480;2022-11-12T08:36:08;10.67;;;5.33;;
21258;SDS011;10787;53.364;-1.480;2022-11-12T08:38:36;11.97;;;5.77;;
21258;SDS011;10787;53.364;-1.480;2022-11-12T08:41:03;8.50;;;5.40;;
21258;SDS011;10787;53.364;-1.480;2022-11-12T08:43:32;11.77;;;6.10;;
21258;SDS011;10787;53.364;-1.480;2022-11-12T08:45:58;10.20;;;5.60;;
21258;SDS011;10787;53.364;-1.480;2022-11-12T08:48:25;9.93;;;5.90;;
21258;SDS011;10787;53.364;-1.480;2022-11-12T08:50:52;10.60;;;5.80;;
21258;SDS011;10787;53.364;-1.480;2022-11-12T08:53:19;11.33;;;6.00;;
21258;SDS011;10787;53.364;-1.480;2022-11-12T08:55:46;11.30;;;6.00;;
21258;SDS011;10787;53.364;-1.480;2022-11-12T08:58:12;10.37;;;5.93;;
21258;SDS011;10787;53.364;-1.480;2022-11-12T09:00:39;11.60;;;5.90;;
21258;SDS011;10787;53.364;-1.480;2022-11-12T09:03:12;11.33;;;6.10;;
21258;SDS011;10787;53.364;-1.480;2022-11-12T09:05:39;8.80;;;5.60;;
21258;SDS011;10787;53.364;-1.480;2022-11-12T09:08:10;11.93;;;5.93;;
21258;SDS011;10787;53.364;-1.480;2022-11-12T09:10:46;13.63;;;6.00;;
21258;SDS011;10787;53.364;-1.480;2022-11-12T09:13:12;9.80;;;5.90;;
21258;SDS011;10787;53.364;-1.480;2022-11-12T09:15:38;9.27;;;5.83;;
21258;SDS011;10787;53.364;-1.480;2022-11-12T09:18:06;10.30;;;5.57;;
21258;SDS011;10787;53.364;-1.480;2022-11-12T09:20:35;10.40;;;5.40;;
21258;SDS011;10787;53.364;-1.480;2022-11-12T09:23:02;9.23;;;5.33;;
21258;SDS011;10787;53.364;-1.480;2022-11-12T09:25:30;9.33;;;5.53;;
21258;SDS011;10787;53.364;-1.480;2022-11-12T09:27:56;9.13;;;5.37;;
21258;SDS011;10787;53.364;-1.480;2022-11-12T09:30:22;11.40;;;5.90;;
21258;SDS011;10787;53.364;-1.480;2022-11-12T09:32:48;10.47;;;5.40;;
21258;SDS011;10787;53.364;-1.480;2022-11-12T09:35:14;8.40;;;5.17;;
21258;SDS011;10787;53.364;-1.480;2022-11-12T09:37:39;8.90;;;4.93;;
21258;SDS011;10787;53.364;-1.480;2022-11-12T09:40:05;9.20;;;4.90;;
21258;SDS011;10787;53.364;-1.480;2022-11-12T09:42:39;8.40;;;4.70;;
21258;SDS011;10787;53.364;-1.480;2022-11-12T09:47:39;8.67;;;5.03;;
21258;SDS011;10787;53.364;-1.480;2022-11-12T09:52:51;10.03;;;4.73;;
21258;SDS011;10787;53.364;-1.480;2022-11-12T09:55:33;8.50;;;4.80;;
21258;SDS011;10787;53.364;-1.480;2022-11-12T09:58:13;7.23;;;4.37;;
21258;SDS011;10787;53.364;-1.480;2022-11-12T10:00:43;8.80;;;4.60;;
21258;SDS011;10787;53.364;-1.480;2022-11-12T10:09:10;8.43;;;4.60;;
21258;SDS011;10787;53.364;-1.480;2022-11-12T10:15:17;7.67;;;4.80;;
21258;SDS011;10787;53.364;-1.480;2022-11-12T10:18:28;8.67;;;5.40;;
21258;SDS011;10787;53.364;-1.480;2022-11-12T10:24:08;9.17;;;5.20;;
21258;SDS011;10787;53.364;-1.480;2022-11-12T10:26:36;10.67;;;5.03;;
21258;SDS011;10787;53.364;-1.480;2022-11-12T10:31:35;9.97;;;5.10;;
21258;SDS011;10787;53.364;-1.480;2022-11-12T10:34:13;8.60;;;5.40;;
21258;SDS011;10787;53.364;-1.480;2022-11-12T10:36:45;8.90;;;5.10;;
21258;SDS011;10787;53.364;-1.480;2022-11-12T10:42:05;9.50;;;5.40;;
21258;SDS011;10787;53.364;-1.480;2022-11-12T10:44:35;10.77;;;6.17;;
21258;SDS011;10787;53.364;-1.480;2022-11-12T10:50:03;9.93;;;6.20;;
21258;SDS011;10787;53.364;-1.480;2022-11-12T10:52:29;9.20;;;6.80;;
21258;SDS011;10787;53.364;-1.480;2022-11-12T10:55:05;13.23;;;6.70;;
21258;SDS011;10787;53.364;-1.480;2022-11-12T10:57:42;12.83;;;7.17;;
21258;SDS011;10787;53.364;-1.480;2022-11-12T11:02:50;11.50;;;7.33;;
21258;SDS011;10787;53.364;-1.480;2022-11-12T11:05:27;14.53;;;8.53;;
21258;SDS011;10787;53.364;-1.480;2022-11-12T11:07:53;11.03;;;7.90;;
21258;SDS011;10787;53.364;-1.480;2022-11-12T11:12:48;13.93;;;9.10;;
21258;SDS011;10787;53.364;-1.480;2022-11-12T11:15:32;13.40;;;8.77;;
21258;SDS011;10787;53.364;-1.480;2022-11-12T11:17:58;14.60;;;8.40;;
21258;SDS011;10787;53.364;-1.480;2022-11-12T11:20:25;15.13;;;9.07;;
21258;SDS011;10787;53.364;-1.480;2022-11-12T11:23:18;15.03;;;8.97;;
21258;SDS011;10787;53.364;-1.480;2022-11-12T11:25:48;12.87;;;8.37;;
21258;SDS011;10787;53.364;-1.480;2022-11-12T11:31:05;15.47;;;10.93;;
21258;SDS011;10787;53.364;-1.480;2022-11-12T11:33:56;14.03;;;10.77;;
21258;SDS011;10787;53.364;-1.480;2022-11-12T11:39:23;14.73;;;10.50;;
21258;SDS011;10787;53.364;-1.480;2022-11-12T11:44:51;17.07;;;10.63;;
21258;SDS011;10787;53.364;-1.480;2022-11-12T11:48:28;17.73;;;11.40;;
21258;SDS011;10787;53.364;-1.480;2022-11-12T11:50:33;20.27;;;12.00;;
21258;SDS011;10787;53.364;-1.480;2022-11-12T11:55:51;16.27;;;12.32;;
21258;SDS011;10787;53.364;-1.480;2022-11-12T12:04:41;15.48;;;12.63;;
21258;SDS011;10787;53.364;-1.480;2022-11-12T12:10:11;19.17;;;14.35;;
21258;SDS011;10787;53.364;-1.480;2022-11-12T12:15:26;18.23;;;14.70;;
21258;SDS011;10787;53.364;-1.480;2022-11-12T12:21:23;18.13;;;13.35;;
21258;SDS011;10787;53.364;-1.480;2022-11-12T12:23:54;21.25;;;15.50;;
21258;SDS011;10787;53.364;-1.480;2022-11-12T12:26:26;19.35;;;14.70;;
21258;SDS011;10787;53.364;-1.480;2022-11-12T12:32:21;17.92;;;14.27;;
21258;SDS011;10787;53.364;-1.480;2022-11-12T12:34:48;17.45;;;13.63;;
21258;SDS011;10787;53.364;-1.480;2022-11-12T12:37:38;17.15;;;13.80;;
21258;SDS011;10787;53.364;-1.480;2022-11-12T12:40:20;18.00;;;13.70;;
21258;SDS011;10787;53.364;-1.480;2022-11-12T12:43:03;17.73;;;13.93;;
21258;SDS011;10787;53.364;-1.480;2022-11-12T12:45:41;16.73;;;13.38;;
21258;SDS011;10787;53.364;-1.480;2022-11-12T12:48:27;19.83;;;12.82;;
21258;SDS011;10787;53.364;-1.480;2022-11-12T12:50:56;21.15;;;13.90;;
21258;SDS011;10787;53.364;-1.480;2022-11-12T12:55:52;15.70;;;12.07;;
21258;SDS011;10787;53.364;-1.480;2022-11-12T12:58:22;15.85;;;10.80;;
21258;SDS011;10787;53.364;-1.480;2022-11-12T13:06:38;14.68;;;10.27;;
21258;SDS011;10787;53.364;-1.480;2022-11-12T13:17:04;15.10;;;10.30;;
21258;SDS011;10787;53.364;-1.480;2022-11-12T13:19:46;14.48;;;10.18;;
21258;SDS011;10787;53.364;-1.480;2022-11-12T13:25:33;16.42;;;10.45;;
21258;SDS011;10787;53.364;-1.480;2022-11-12T13:32:55;14.32;;;9.45;;
21258;SDS011;10787;53.364;-1.480;2022-11-12T13:38:02;10.27;;;9.13;;
21258;SDS011;10787;53.364;-1.480;2022-11-12T13:45:41;10.70;;;8.50;;
21258;SDS011;10787;53.364;-1.480;2022-11-12T13:48:30;8.98;;;7.88;;
21258;SDS011;10787;53.364;-1.480;2022-11-12T13:51:03;9.73;;;7.78;;
21258;SDS011;10787;53.364;-1.480;2022-11-12T13:53:49;9.82;;;8.50;;
21258;SDS011;10787;53.364;-1.480;2022-11-12T13:56:28;10.27;;;7.88;;
21258;SDS011;10787;53.364;-1.480;2022-11-12T13:59:12;9.68;;;7.43;;
21258;SDS011;10787;53.364;-1.480;2022-11-12T14:01:39;10.82;;;8.00;;
21258;SDS011;10787;53.364;-1.480;2022-11-12T14:04:12;10.27;;;8.13;;
21258;SDS011;10787;53.364;-1.480;2022-11-12T14:06:41;9.10;;;7.93;;
21258;SDS011;10787;53.364;-1.480;2022-11-12T14:12:49;10.40;;;8.55;;
21258;SDS011;10787;53.364;-1.480;2022-11-12T14:15:53;10.82;;;8.20;;
21258;SDS011;10787;53.364;-1.480;2022-11-12T14:18:43;8.82;;;7.43;;
21258;SDS011;10787;53.364;-1.480;2022-11-12T14:21:18;9.57;;;8.35;;
21258;SDS011;10787;53.364;-1.480;2022-11-12T14:23:45;9.93;;;8.07;;
21258;SDS011;10787;53.364;-1.480;2022-11-12T14:26:12;12.80;;;8.52;;
21258;SDS011;10787;53.364;-1.480;2022-11-12T14:28:38;10.40;;;8.70;;
21258;SDS011;10787;53.364;-1.480;2022-11-12T14:31:11;11.77;;;9.15;;
21258;SDS011;10787;53.364;-1.480;2022-11-12T14:33:39;11.27;;;8.73;;
21258;SDS011;10787;53.364;-1.480;2022-11-12T14:36:14;9.98;;;8.80;;
21258;SDS011;10787;53.364;-1.480;2022-11-12T14:38:47;11.43;;;9.68;;
21258;SDS011;10787;53.364;-1.480;2022-11-12T14:41:22;11.70;;;9.60;;
21258;SDS011;10787;53.364;-1.480;2022-11-12T14:43:51;10.48;;;9.13;;
21258;SDS011;10787;53.364;-1.480;2022-11-12T14:48:52;11.35;;;9.23;;
21258;SDS011;10787;53.364;-1.480;2022-11-12T14:51:23;12.38;;;10.20;;
21258;SDS011;10787;53.364;-1.480;2022-11-12T14:54:03;13.90;;;10.82;;
21258;SDS011;10787;53.364;-1.480;2022-11-12T14:56:32;14.30;;;10.55;;
21258;SDS011;10787;53.364;-1.480;2022-11-12T14:59:09;12.73;;;10.57;;
21258;SDS011;10787;53.364;-1.480;2022-11-12T15:01:37;12.77;;;11.40;;
21258;SDS011;10787;53.364;-1.480;2022-11-12T15:06:36;14.57;;;12.45;;
21258;SDS011;10787;53.364;-1.480;2022-11-12T15:09:02;14.80;;;11.93;;
21258;SDS011;10787;53.364;-1.480;2022-11-12T15:11:29;13.80;;;11.90;;
21258;SDS011;10787;53.364;-1.480;2022-11-12T15:14:11;15.27;;;12.20;;
21258;SDS011;10787;53.364;-1.480;2022-11-12T15:16:45;16.52;;;12.60;;
21258;SDS011;10787;53.364;-1.480;2022-11-12T15:19:16;17.60;;;13.40;;
21258;SDS011;10787;53.364;-1.480;2022-11-12T15:21:51;17.48;;;14.05;;
21258;SDS011;10787;53.364;-1.480;2022-11-12T15:26:55;17.75;;;13.80;;
21258;SDS011;10787;53.364;-1.480;2022-11-12T15:29:26;16.40;;;14.15;;
21258;SDS011;10787;53.364;-1.480;2022-11-12T15:31:56;18.38;;;14.52;;
21258;SDS011;10787;53.364;-1.480;2022-11-12T15:34:45;19.63;;;15.75;;
21258;SDS011;10787;53.364;-1.480;2022-11-12T15:37:20;19.83;;;15.45;;
21258;SDS011;10787;53.364;-1.480;2022-11-12T15:39:50;22.58;;;15.88;;
21258;SDS011;10787;53.364;-1.480;2022-11-12T15:44:58;21.85;;;16.73;;
21258;SDS011;10787;53.364;-1.480;2022-11-12T15:47:29;23.95;;;16.92;;
21258;SDS011;10787;53.364;-1.480;2022-11-12T15:49:58;23.63;;;17.63;;
21258;SDS011;10787;53.364;-1.480;2022-11-12T15:52:24;24.90;;;17.58;;
21258;SDS011;10787;53.364;-1.480;2022-11-12T15:54:50;24.30;;;17.95;;
21258;SDS011;10787;53.364;-1.480;2022-11-12T15:57:20;23.40;;;16.65;;
21258;SDS011;10787;53.364;-1.480;2022-11-12T15:59:51;24.92;;;17.42;;
21258;SDS011;10787;53.364;-1.480;2022-11-12T16:02:26;25.27;;;17.50;;
21258;SDS011;10787;53.364;-1.480;2022-11-12T16:04:53;24.30;;;17.92;;
21258;SDS011;10787;53.364;-1.480;2022-11-12T16:07:19;28.80;;;19.30;;
21258;SDS011;10787;53.364;-1.480;2022-11-12T16:09:45;25.27;;;18.98;;
21258;SDS011;10787;53.364;-1.480;2022-11-12T16:12:11;26.15;;;18.55;;
21258;SDS011;10787;53.364;-1.480;2022-11-12T16:14:41;26.13;;;17.95;;
21258;SDS011;10787;53.364;-1.480;2022-11-12T16:17:11;25.88;;;18.23;;
21258;SDS011;10787;53.364;-1.480;2022-11-12T16:19:41;26.77;;;18.52;;
21258;SDS011;10787;53.364;-1.480;2022-11-12T16:22:07;24.73;;;18.15;;
21258;SDS011;10787;53.364;-1.480;2022-11-12T16:24:40;28.08;;;20.27;;
21258;SDS011;10787;53.364;-1.480;2022-11-12T16:27:13;29.52;;;20.08;;